sensor_id;sensor_type;location;lat;lon;timestamp;P1;durP1;ratioP1;P2;durP2;ratioP2
3563;SDS011;1796;52.388;13.096;2023-07-20T00:01:00;7.20;;;6.47;;
3563;SDS011;1796;52.388;13.096;2023-07-20T00:03:27;9.70;;;6.20;;
3563;SDS011;1796;52.388;13.096;2023-07-20T00:05:54;6.70;;;6.00;;
3563;SDS011;1796;52.388;13.096;2023-07-20T00:08:21;6.63;;;6.03;;
3563;SDS011;1796;52.388;13.096;2023-07-20T00:10:49;7.53;;;6.33;;
3563;SDS011;1796;52.388;13.096;2023-07-20T00:13:16;11.13;;;7.17;;
3563;SDS011;1796;52.388;13.096;2023-07-20T00:15:43;7.43;;;6.70;;
3563;SDS011;1796;52.388;13.096;2023-07-20T00:18:10;5.97;;;5.53;;
3563;SDS011;1796;52.388;13.096;2023-07-20T00:20:37;6.40;;;5.73;;
3563;SDS011;1796;52.388;13.096;2023-07-20T00:23:04;9.40;;;6.97;;
3563;SDS011;1796;52.388;13.096;2023-07-20T00:25:31;16.57;;;6.57;;
3563;SDS011;1796;52.388;13.096;2023-07-20T00:27:59;8.47;;;7.07;;
3563;SDS011;1796;52.388;13.096;2023-07-20T00:30:26;13.33;;;6.60;;
3563;SDS011;1796;52.388;13.096;2023-07-20T00:32:53;8.53;;;6.50;;
3563;SDS011;1796;52.388;13.096;2023-07-20T00:35:20;7.13;;;6.50;;
3563;SDS011;1796;52.388;13.096;2023-07-20T00:37:47;7.10;;;6.40;;
3563;SDS011;1796;52.388;13.096;2023-07-20T00:40:14;7.00;;;6.40;;
3563;SDS011;1796;52.388;13.096;2023-07-20T00:42:43;10.90;;;7.30;;
3563;SDS011;1796;52.388;13.096;2023-07-20T00:45:11;12.23;;;6.50;;
3563;SDS011;1796;52.388;13.096;2023-07-20T00:47:38;7.70;;;6.60;;
3563;SDS011;1796;52.388;13.096;2023-07-20T00:50:05;7.20;;;6.53;;
3563;SDS011;1796;52.388;13.096;2023-07-20T00:52:33;10.37;;;7.47;;
3563;SDS011;1796;52.388;13.096;2023-07-20T00:55:00;7.43;;;6.93;;
3563;SDS011;1796;52.388;13.096;2023-07-20T00:57:27;8.87;;;7.80;;
3563;SDS011;1796;52.388;13.096;2023-07-20T00:59:54;8.17;;;7.27;;
3563;SDS011;1796;52.388;13.096;2023-07-20T01:02:22;7.70;;;6.87;;
3563;SDS011;1796;52.388;13.096;2023-07-20T01:04:49;7.67;;;6.93;;
3563;SDS011;1796;52.388;13.096;2023-07-20T01:07:21;13.03;;;6.37;;
3563;SDS011;1796;52.388;13.096;2023-07-20T01:09:52;8.10;;;6.97;;
3563;SDS011;1796;52.388;13.096;2023-07-20T01:12:25;8.30;;;7.00;;
3563;SDS011;1796;52.388;13.096;2023-07-20T01:14:56;6.90;;;6.40;;
3563;SDS011;1796;52.388;13.096;2023-07-20T01:17:24;10.17;;;7.47;;
3563;SDS011;1796;52.388;13.096;2023-07-20T01:19:51;7.33;;;6.60;;
3563;SDS011;1796;52.388;13.096;2023-07-20T01:22:21;8.23;;;6.97;;
3563;SDS011;1796;52.388;13.096;2023-07-20T01:25:21;6.83;;;6.17;;
3563;SDS011;1796;52.388;13.096;2023-07-20T01:30:59;9.10;;;7.00;;
3563;SDS011;1796;52.388;13.096;2023-07-20T01:33:35;7.03;;;6.17;;
3563;SDS011;1796;52.388;13.096;2023-07-20T01:36:03;6.80;;;6.20;;
3563;SDS011;1796;52.388;13.096;2023-07-20T01:38:31;7.57;;;6.87;;
3563;SDS011;1796;52.388;13.096;2023-07-20T01:40:58;7.20;;;6.60;;
3563;SDS011;1796;52.388;13.096;2023-07-20T01:43:25;7.27;;;6.73;;
3563;SDS011;1796;52.388;13.096;2023-07-20T01:45:52;9.03;;;7.23;;
3563;SDS011;1796;52.388;13.096;2023-07-20T01:48:20;8.10;;;6.50;;
3563;SDS011;1796;52.388;13.096;2023-07-20T01:50:47;7.33;;;6.63;;
3563;SDS011;1796;52.388;13.096;2023-07-20T01:53:14;7.97;;;6.63;;
3563;SDS011;1796;52.388;13.096;2023-07-20T01:55:40;7.20;;;5.83;;
3563;SDS011;1796;52.388;13.096;2023-07-20T01:58:07;7.60;;;6.90;;
3563;SDS011;1796;52.388;13.096;2023-07-20T02:00:36;7.30;;;6.60;;
3563;SDS011;1796;52.388;13.096;2023-07-20T02:03:03;7.77;;;7.07;;
3563;SDS011;1796;52.388;13.096;2023-07-20T02:05:32;8.97;;;7.17;;
3563;SDS011;1796;52.388;13.096;2023-07-20T02:07:59;7.57;;;6.97;;
3563;SDS011;1796;52.388;13.096;2023-07-20T02:10:26;9.97;;;7.00;;
3563;SDS011;1796;52.388;13.096;2023-07-20T02:12:53;8.03;;;6.80;;
3563;SDS011;1796;52.388;13.096;2023-07-20T02:15:19;13.50;;;7.47;;
3563;SDS011;1796;52.388;13.096;2023-07-20T02:17:46;8.00;;;7.07;;
3563;SDS011;1796;52.388;13.096;2023-07-20T02:20:13;7.40;;;6.70;;
3563;SDS011;1796;52.388;13.096;2023-07-20T02:22:41;7.90;;;7.30;;
3563;SDS011;1796;52.388;13.096;2023-07-20T02:25:08;7.90;;;7.10;;
3563;SDS011;1796;52.388;13.096;2023-07-20T02:27:35;9.00;;;7.43;;
3563;SDS011;1796;52.388;13.096;2023-07-20T02:30:04;10.00;;;7.60;;
3563;SDS011;1796;52.388;13.096;2023-07-20T02:32:31;9.60;;;6.97;;
3563;SDS011;1796;52.388;13.096;2023-07-20T02:34:58;8.67;;;6.80;;
3563;SDS011;1796;52.388;13.096;2023-07-20T02:37:25;8.00;;;7.40;;
3563;SDS011;1796;52.388;13.096;2023-07-20T02:39:53;13.23;;;7.20;;
3563;SDS011;1796;52.388;13.096;2023-07-20T02:42:20;7.90;;;7.10;;
3563;SDS011;1796;52.388;13.096;2023-07-20T02:44:47;11.60;;;7.30;;
3563;SDS011;1796;52.388;13.096;2023-07-20T02:47:14;9.10;;;7.80;;
3563;SDS011;1796;52.388;13.096;2023-07-20T02:49:41;11.03;;;7.63;;
3563;SDS011;1796;52.388;13.096;2023-07-20T02:52:08;14.50;;;9.23;;
3563;SDS011;1796;52.388;13.096;2023-07-20T02:54:35;10.70;;;8.77;;
3563;SDS011;1796;52.388;13.096;2023-07-20T02:57:04;9.30;;;8.50;;
3563;SDS011;1796;52.388;13.096;2023-07-20T02:59:31;15.13;;;9.10;;
3563;SDS011;1796;52.388;13.096;2023-07-20T03:01:58;12.63;;;8.90;;
3563;SDS011;1796;52.388;13.096;2023-07-20T03:04:25;12.13;;;9.23;;
3563;SDS011;1796;52.388;13.096;2023-07-20T03:06:52;11.07;;;9.97;;
3563;SDS011;1796;52.388;13.096;2023-07-20T03:09:19;13.30;;;9.70;;
3563;SDS011;1796;52.388;13.096;2023-07-20T03:11:46;10.70;;;9.33;;
3563;SDS011;1796;52.388;13.096;2023-07-20T03:14:14;17.03;;;9.40;;
3563;SDS011;1796;52.388;13.096;2023-07-20T03:16:41;12.50;;;9.03;;
3563;SDS011;1796;52.388;13.096;2023-07-20T03:19:08;10.00;;;9.00;;
3563;SDS011;1796;52.388;13.096;2023-07-20T03:21:35;13.17;;;10.63;;
3563;SDS011;1796;52.388;13.096;2023-07-20T03:24:05;11.43;;;10.23;;
3563;SDS011;1796;52.388;13.096;2023-07-20T03:26:32;11.80;;;10.60;;
3563;SDS011;1796;52.388;13.096;2023-07-20T03:28:59;14.13;;;10.50;;
3563;SDS011;1796;52.388;13.096;2023-07-20T03:31:28;12.63;;;10.13;;
3563;SDS011;1796;52.388;13.096;2023-07-20T03:33:55;15.50;;;10.40;;
3563;SDS011;1796;52.388;13.096;2023-07-20T03:36:21;18.27;;;11.33;;
3563;SDS011;1796;52.388;13.096;2023-07-20T03:38:48;11.90;;;10.60;;
3563;SDS011;1796;52.388;13.096;2023-07-20T03:41:16;12.60;;;11.40;;
3563;SDS011;1796;52.388;13.096;2023-07-20T03:43:44;20.63;;;13.00;;
3563;SDS011;1796;52.388;13.096;2023-07-20T03:46:11;15.00;;;12.43;;
3563;SDS011;1796;52.388;13.096;2023-07-20T03:48:41;14.17;;;12.23;;
3563;SDS011;1796;52.388;13.096;2023-07-20T03:51:07;17.13;;;12.97;;
3563;SDS011;1796;52.388;13.096;2023-07-20T03:53:34;14.23;;;12.80;;
3563;SDS011;1796;52.388;13.096;2023-07-20T03:56:01;18.00;;;13.67;;
3563;SDS011;1796;52.388;13.096;2023-07-20T03:58:28;19.07;;;14.70;;
3563;SDS011;1796;52.388;13.096;2023-07-20T04:00:57;15.57;;;13.97;;
3563;SDS011;1796;52.388;13.096;2023-07-20T04:03:23;17.77;;;13.47;;
3563;SDS011;1796;52.388;13.096;2023-07-20T04:05:54;16.97;;;13.60;;
3563;SDS011;1796;52.388;13.096;2023-07-20T04:08:22;16.93;;;13.90;;
3563;SDS011;1796;52.388;13.096;2023-07-20T04:10:49;18.70;;;14.00;;
3563;SDS011;1796;52.388;13.096;2023-07-20T04:13:16;20.33;;;12.87;;
3563;SDS011;1796;52.388;13.096;2023-07-20T04:15:43;17.10;;;13.00;;
3563;SDS011;1796;52.388;13.096;2023-07-20T04:18:10;13.87;;;12.53;;
3563;SDS011;1796;52.388;13.096;2023-07-20T04:20:37;14.47;;;12.50;;
3563;SDS011;1796;52.388;13.096;2023-07-20T04:23:05;13.97;;;11.63;;
3563;SDS011;1796;52.388;13.096;2023-07-20T04:25:32;13.20;;;11.77;;
3563;SDS011;1796;52.388;13.096;2023-07-20T04:28:04;20.90;;;12.70;;
3563;SDS011;1796;52.388;13.096;2023-07-20T04:30:34;15.53;;;12.63;;
3563;SDS011;1796;52.388;13.096;2023-07-20T04:33:01;13.10;;;11.47;;
3563;SDS011;1796;52.388;13.096;2023-07-20T04:38:16;12.10;;;10.80;;
3563;SDS011;1796;52.388;13.096;2023-07-20T04:40:43;14.00;;;10.93;;
3563;SDS011;1796;52.388;13.096;2023-07-20T04:43:11;11.90;;;10.43;;
3563;SDS011;1796;52.388;13.096;2023-07-20T04:45:38;12.23;;;10.50;;
3563;SDS011;1796;52.388;13.096;2023-07-20T04:48:06;13.30;;;10.50;;
3563;SDS011;1796;52.388;13.096;2023-07-20T04:50:35;10.67;;;9.43;;
3563;SDS011;1796;52.388;13.096;2023-07-20T04:53:02;13.00;;;9.60;;
3563;SDS011;1796;52.388;13.096;2023-07-20T04:55:30;10.07;;;9.17;;
3563;SDS011;1796;52.388;13.096;2023-07-20T04:57:58;9.87;;;8.73;;
3563;SDS011;1796;52.388;13.096;2023-07-20T05:00:25;15.63;;;9.20;;
3563;SDS011;1796;52.388;13.096;2023-07-20T05:02:52;14.03;;;8.10;;
3563;SDS011;1796;52.388;13.096;2023-07-20T05:05:19;9.23;;;8.33;;
3563;SDS011;1796;52.388;13.096;2023-07-20T05:07:46;11.17;;;8.60;;
3563;SDS011;1796;52.388;13.096;2023-07-20T05:10:13;8.67;;;7.77;;
3563;SDS011;1796;52.388;13.096;2023-07-20T05:12:41;13.60;;;7.60;;
3563;SDS011;1796;52.388;13.096;2023-07-20T05:15:08;7.97;;;7.27;;
3563;SDS011;1796;52.388;13.096;2023-07-20T05:17:35;9.87;;;7.50;;
3563;SDS011;1796;52.388;13.096;2023-07-20T05:20:02;8.53;;;7.60;;
3563;SDS011;1796;52.388;13.096;2023-07-20T05:22:30;8.60;;;7.70;;
3563;SDS011;1796;52.388;13.096;2023-07-20T05:24:57;7.93;;;7.10;;
3563;SDS011;1796;52.388;13.096;2023-07-20T05:27:24;11.33;;;7.63;;
3563;SDS011;1796;52.388;13.096;2023-07-20T05:29:52;10.40;;;7.90;;
3563;SDS011;1796;52.388;13.096;2023-07-20T05:32:19;9.83;;;6.37;;
3563;SDS011;1796;52.388;13.096;2023-07-20T05:34:46;7.43;;;6.70;;
3563;SDS011;1796;52.388;13.096;2023-07-20T05:37:12;7.40;;;6.80;;
3563;SDS011;1796;52.388;13.096;2023-07-20T05:39:39;7.40;;;5.80;;
3563;SDS011;1796;52.388;13.096;2023-07-20T05:42:06;7.83;;;6.93;;
3563;SDS011;1796;52.388;13.096;2023-07-20T05:44:33;10.03;;;7.30;;
3563;SDS011;1796;52.388;13.096;2023-07-20T05:47:01;7.97;;;7.20;;
3563;SDS011;1796;52.388;13.096;2023-07-20T05:49:29;7.33;;;6.43;;
3563;SDS011;1796;52.388;13.096;2023-07-20T05:51:56;10.73;;;7.70;;
3563;SDS011;1796;52.388;13.096;2023-07-20T05:54:23;10.43;;;7.13;;
3563;SDS011;1796;52.388;13.096;2023-07-20T05:56:50;10.50;;;7.33;;
3563;SDS011;1796;52.388;13.096;2023-07-20T05:59:17;7.50;;;6.80;;
3563;SDS011;1796;52.388;13.096;2023-07-20T06:01:45;11.30;;;7.10;;
3563;SDS011;1796;52.388;13.096;2023-07-20T06:04:14;7.40;;;6.50;;
3563;SDS011;1796;52.388;13.096;2023-07-20T06:06:42;7.90;;;7.10;;
3563;SDS011;1796;52.388;13.096;2023-07-20T06:09:09;9.93;;;6.00;;
3563;SDS011;1796;52.388;13.096;2023-07-20T06:11:37;5.70;;;5.20;;
3563;SDS011;1796;52.388;13.096;2023-07-20T06:14:04;6.40;;;5.83;;
3563;SDS011;1796;52.388;13.096;2023-07-20T06:16:31;7.97;;;4.70;;
3563;SDS011;1796;52.388;13.096;2023-07-20T06:18:59;4.90;;;4.50;;
3563;SDS011;1796;52.388;13.096;2023-07-20T06:21:27;4.53;;;4.10;;
3563;SDS011;1796;52.388;13.096;2023-07-20T06:23:54;5.90;;;3.80;;
3563;SDS011;1796;52.388;13.096;2023-07-20T06:26:21;4.50;;;3.67;;
3563;SDS011;1796;52.388;13.096;2023-07-20T06:28:48;5.27;;;3.33;;
3563;SDS011;1796;52.388;13.096;2023-07-20T06:31:16;3.97;;;3.10;;
3563;SDS011;1796;52.388;13.096;2023-07-20T06:33:43;5.40;;;2.90;;
3563;SDS011;1796;52.388;13.096;2023-07-20T06:36:10;3.10;;;2.90;;
3563;SDS011;1796;52.388;13.096;2023-07-20T06:38:38;2.60;;;2.50;;
3563;SDS011;1796;52.388;13.096;2023-07-20T06:41:05;2.90;;;2.70;;
3563;SDS011;1796;52.388;13.096;2023-07-20T06:43:32;2.40;;;2.20;;
3563;SDS011;1796;52.388;13.096;2023-07-20T06:46:00;1.90;;;1.80;;
3563;SDS011;1796;52.388;13.096;2023-07-20T06:48:26;2.80;;;2.60;;
3563;SDS011;1796;52.388;13.096;2023-07-20T06:50:53;2.00;;;1.90;;
3563;SDS011;1796;52.388;13.096;2023-07-20T06:53:20;2.60;;;1.97;;
3563;SDS011;1796;52.388;13.096;2023-07-20T06:55:48;4.20;;;1.87;;
3563;SDS011;1796;52.388;13.096;2023-07-20T06:58:16;2.00;;;1.70;;
3563;SDS011;1796;52.388;13.096;2023-07-20T07:00:44;1.87;;;1.53;;
3563;SDS011;1796;52.388;13.096;2023-07-20T07:03:10;4.40;;;1.50;;
3563;SDS011;1796;52.388;13.096;2023-07-20T07:05:37;7.30;;;1.10;;
3563;SDS011;1796;52.388;13.096;2023-07-20T07:08:04;3.23;;;1.33;;
3563;SDS011;1796;52.388;13.096;2023-07-20T07:10:32;1.50;;;1.33;;
3563;SDS011;1796;52.388;13.096;2023-07-20T07:13:00;1.40;;;1.30;;
3563;SDS011;1796;52.388;13.096;2023-07-20T07:15:27;1.30;;;1.30;;
3563;SDS011;1796;52.388;13.096;2023-07-20T07:17:54;2.17;;;1.40;;
3563;SDS011;1796;52.388;13.096;2023-07-20T07:20:21;3.00;;;1.40;;
3563;SDS011;1796;52.388;13.096;2023-07-20T07:22:49;1.47;;;1.07;;
3563;SDS011;1796;52.388;13.096;2023-07-20T07:25:17;2.00;;;1.10;;
3563;SDS011;1796;52.388;13.096;2023-07-20T07:27:44;3.33;;;1.00;;
3563;SDS011;1796;52.388;13.096;2023-07-20T07:30:13;3.33;;;1.40;;
3563;SDS011;1796;52.388;13.096;2023-07-20T07:32:40;1.10;;;1.10;;
3563;SDS011;1796;52.388;13.096;2023-07-20T07:35:07;2.50;;;1.00;;
3563;SDS011;1796;52.388;13.096;2023-07-20T07:37:34;2.83;;;1.30;;
3563;SDS011;1796;52.388;13.096;2023-07-20T07:40:02;1.10;;;1.00;;
3563;SDS011;1796;52.388;13.096;2023-07-20T07:42:30;1.10;;;1.00;;
3563;SDS011;1796;52.388;13.096;2023-07-20T07:44:57;1.23;;;1.00;;
3563;SDS011;1796;52.388;13.096;2023-07-20T07:47:25;1.57;;;1.23;;
3563;SDS011;1796;52.388;13.096;2023-07-20T07:49:52;0.87;;;0.87;;
3563;SDS011;1796;52.388;13.096;2023-07-20T07:52:19;1.30;;;1.20;;
3563;SDS011;1796;52.388;13.096;2023-07-20T07:54:46;5.60;;;1.07;;
3563;SDS011;1796;52.388;13.096;2023-07-20T07:57:13;3.80;;;1.17;;
3563;SDS011;1796;52.388;13.096;2023-07-20T07:59:40;1.13;;;1.13;;
3563;SDS011;1796;52.388;13.096;2023-07-20T08:02:07;5.03;;;1.30;;
3563;SDS011;1796;52.388;13.096;2023-07-20T08:04:35;3.27;;;0.90;;
3563;SDS011;1796;52.388;13.096;2023-07-20T08:07:03;20.13;;;2.50;;
3563;SDS011;1796;52.388;13.096;2023-07-20T08:09:30;5.60;;;1.53;;
3563;SDS011;1796;52.388;13.096;2023-07-20T08:11:57;14.47;;;2.37;;
3563;SDS011;1796;52.388;13.096;2023-07-20T08:14:24;2.30;;;1.07;;
3563;SDS011;1796;52.388;13.096;2023-07-20T08:16:51;9.30;;;1.50;;
3563;SDS011;1796;52.388;13.096;2023-07-20T08:19:19;1.27;;;1.10;;
3563;SDS011;1796;52.388;13.096;2023-07-20T08:21:47;1.20;;;1.10;;
3563;SDS011;1796;52.388;13.096;2023-07-20T08:24:14;1.43;;;1.20;;
3563;SDS011;1796;52.388;13.096;2023-07-20T08:26:41;1.23;;;1.23;;
3563;SDS011;1796;52.388;13.096;2023-07-20T08:29:08;1.03;;;1.03;;
3563;SDS011;1796;52.388;13.096;2023-07-20T08:31:35;4.97;;;1.27;;
3563;SDS011;1796;52.388;13.096;2023-07-20T08:34:01;3.00;;;1.40;;
3563;SDS011;1796;52.388;13.096;2023-07-20T08:36:28;3.03;;;1.30;;
3563;SDS011;1796;52.388;13.096;2023-07-20T08:38:57;2.23;;;2.03;;
3563;SDS011;1796;52.388;13.096;2023-07-20T08:41:24;1.23;;;0.90;;
3563;SDS011;1796;52.388;13.096;2023-07-20T08:43:51;1.50;;;1.40;;
3563;SDS011;1796;52.388;13.096;2023-07-20T08:46:23;3.50;;;1.47;;
3563;SDS011;1796;52.388;13.096;2023-07-20T08:48:51;1.40;;;1.30;;
3563;SDS011;1796;52.388;13.096;2023-07-20T08:51:19;7.73;;;1.10;;
3563;SDS011;1796;52.388;13.096;2023-07-20T08:53:47;1.40;;;1.30;;
3563;SDS011;1796;52.388;13.096;2023-07-20T08:56:17;1.27;;;1.07;;
3563;SDS011;1796;52.388;13.096;2023-07-20T08:58:45;1.00;;;1.00;;
3563;SDS011;1796;52.388;13.096;2023-07-20T09:01:13;1.73;;;1.20;;
3563;SDS011;1796;52.388;13.096;2023-07-20T09:03:41;3.27;;;1.40;;
3563;SDS011;1796;52.388;13.096;2023-07-20T09:06:10;0.80;;;0.70;;
3563;SDS011;1796;52.388;13.096;2023-07-20T09:08:37;4.93;;;1.10;;
3563;SDS011;1796;52.388;13.096;2023-07-20T09:11:04;2.07;;;1.70;;
3563;SDS011;1796;52.388;13.096;2023-07-20T09:13:33;2.60;;;0.90;;
3563;SDS011;1796;52.388;13.096;2023-07-20T09:16:00;1.17;;;0.77;;
3563;SDS011;1796;52.388;13.096;2023-07-20T09:18:29;1.07;;;0.77;;
3563;SDS011;1796;52.388;13.096;2023-07-20T09:21:01;0.80;;;0.80;;
3563;SDS011;1796;52.388;13.096;2023-07-20T09:23:32;3.53;;;0.90;;
3563;SDS011;1796;52.388;13.096;2023-07-20T09:25:59;0.83;;;0.80;;
3563;SDS011;1796;52.388;13.096;2023-07-20T09:28:26;0.80;;;0.80;;
3563;SDS011;1796;52.388;13.096;2023-07-20T09:30:55;0.70;;;0.70;;
3563;SDS011;1796;52.388;13.096;2023-07-20T09:33:23;1.37;;;0.80;;
3563;SDS011;1796;52.388;13.096;2023-07-20T09:35:50;1.17;;;0.80;;
3563;SDS011;1796;52.388;13.096;2023-07-20T09:38:17;0.70;;;0.70;;
3563;SDS011;1796;52.388;13.096;2023-07-20T09:40:44;1.03;;;0.70;;
3563;SDS011;1796;52.388;13.096;2023-07-20T09:43:11;5.30;;;0.70;;
3563;SDS011;1796;52.388;13.096;2023-07-20T09:45:41;1.83;;;1.63;;
3563;SDS011;1796;52.388;13.096;2023-07-20T09:48:10;0.60;;;0.60;;
3563;SDS011;1796;52.388;13.096;2023-07-20T09:50:40;1.33;;;0.70;;
3563;SDS011;1796;52.388;13.096;2023-07-20T09:53:09;0.70;;;0.70;;
3563;SDS011;1796;52.388;13.096;2023-07-20T09:55:39;2.13;;;0.67;;
3563;SDS011;1796;52.388;13.096;2023-07-20T09:58:08;1.33;;;0.60;;
3563;SDS011;1796;52.388;13.096;2023-07-20T10:00:35;2.50;;;0.60;;
3563;SDS011;1796;52.388;13.096;2023-07-20T10:03:04;1.00;;;1.00;;
3563;SDS011;1796;52.388;13.096;2023-07-20T10:05:33;5.10;;;0.90;;
3563;SDS011;1796;52.388;13.096;2023-07-20T10:08:02;0.80;;;0.77;;
3563;SDS011;1796;52.388;13.096;2023-07-20T10:10:31;0.80;;;0.80;;
3563;SDS011;1796;52.388;13.096;2023-07-20T10:13:00;4.00;;;0.87;;
3563;SDS011;1796;52.388;13.096;2023-07-20T10:15:29;0.90;;;0.70;;
3563;SDS011;1796;52.388;13.096;2023-07-20T10:18:02;1.07;;;0.60;;
3563;SDS011;1796;52.388;13.096;2023-07-20T10:20:34;1.73;;;0.83;;
3563;SDS011;1796;52.388;13.096;2023-07-20T10:23:03;1.70;;;0.70;;
3563;SDS011;1796;52.388;13.096;2023-07-20T10:25:31;5.50;;;0.90;;
3563;SDS011;1796;52.388;13.096;2023-07-20T10:28:02;0.80;;;0.80;;
3563;SDS011;1796;52.388;13.096;2023-07-20T10:30:30;1.43;;;1.00;;
3563;SDS011;1796;52.388;13.096;2023-07-20T10:32:58;2.63;;;0.80;;
3563;SDS011;1796;52.388;13.096;2023-07-20T10:35:27;0.80;;;0.80;;
3563;SDS011;1796;52.388;13.096;2023-07-20T10:37:59;2.60;;;1.03;;
3563;SDS011;1796;52.388;13.096;2023-07-20T10:40:31;0.83;;;0.83;;
3563;SDS011;1796;52.388;13.096;2023-07-20T10:43:03;2.90;;;1.00;;
3563;SDS011;1796;52.388;13.096;2023-07-20T10:48:19;2.20;;;1.03;;
3563;SDS011;1796;52.388;13.096;2023-07-20T10:53:36;2.70;;;1.10;;
3563;SDS011;1796;52.388;13.096;2023-07-20T10:56:06;1.83;;;1.00;;
3563;SDS011;1796;52.388;13.096;2023-07-20T10:58:34;1.33;;;1.20;;
3563;SDS011;1796;52.388;13.096;2023-07-20T11:01:01;2.10;;;1.50;;
3563;SDS011;1796;52.388;13.096;2023-07-20T11:03:29;1.43;;;1.30;;
3563;SDS011;1796;52.388;13.096;2023-07-20T11:05:58;1.80;;;1.10;;
3563;SDS011;1796;52.388;13.096;2023-07-20T11:08:41;3.13;;;1.27;;
3563;SDS011;1796;52.388;13.096;2023-07-20T11:11:21;4.00;;;1.10;;
3563;SDS011;1796;52.388;13.096;2023-07-20T11:13:55;3.37;;;1.50;;
3563;SDS011;1796;52.388;13.096;2023-07-20T11:16:36;2.20;;;1.30;;
3563;SDS011;1796;52.388;13.096;2023-07-20T11:19:04;4.30;;;1.47;;
3563;SDS011;1796;52.388;13.096;2023-07-20T11:21:35;1.63;;;1.03;;
3563;SDS011;1796;52.388;13.096;2023-07-20T11:24:06;1.20;;;0.90;;
3563;SDS011;1796;52.388;13.096;2023-07-20T11:26:43;1.97;;;1.30;;
3563;SDS011;1796;52.388;13.096;2023-07-20T11:29:11;4.15;;;1.10;;
3563;SDS011;1796;52.388;13.096;2023-07-20T11:31:38;1.27;;;1.20;;
3563;SDS011;1796;52.388;13.096;2023-07-20T11:34:07;2.80;;;1.07;;
3563;SDS011;1796;52.388;13.096;2023-07-20T11:36:36;2.10;;;1.03;;
3563;SDS011;1796;52.388;13.096;2023-07-20T11:39:04;1.47;;;0.80;;
3563;SDS011;1796;52.388;13.096;2023-07-20T11:41:32;0.83;;;0.70;;
3563;SDS011;1796;52.388;13.096;2023-07-20T11:43:59;0.83;;;0.83;;
3563;SDS011;1796;52.388;13.096;2023-07-20T11:46:27;1.80;;;1.00;;
3563;SDS011;1796;52.388;13.096;2023-07-20T11:48:57;0.80;;;0.80;;
3563;SDS011;1796;52.388;13.096;2023-07-20T11:51:26;0.80;;;0.80;;
3563;SDS011;1796;52.388;13.096;2023-07-20T11:53:53;1.30;;;1.20;;
3563;SDS011;1796;52.388;13.096;2023-07-20T11:56:22;1.27;;;0.77;;
3563;SDS011;1796;52.388;13.096;2023-07-20T11:58:49;0.83;;;0.83;;
3563;SDS011;1796;52.388;13.096;2023-07-20T12:01:17;6.43;;;1.00;;
3563;SDS011;1796;52.388;13.096;2023-07-20T12:03:45;8.83;;;1.07;;
3563;SDS011;1796;52.388;13.096;2023-07-20T12:06:15;5.40;;;0.93;;
3563;SDS011;1796;52.388;13.096;2023-07-20T12:08:42;2.20;;;1.27;;
3563;SDS011;1796;52.388;13.096;2023-07-20T12:11:09;6.17;;;1.30;;
3563;SDS011;1796;52.388;13.096;2023-07-20T12:13:38;1.27;;;1.10;;
3563;SDS011;1796;52.388;13.096;2023-07-20T12:16:11;12.83;;;1.30;;
3563;SDS011;1796;52.388;13.096;2023-07-20T12:18:39;2.03;;;0.90;;
3563;SDS011;1796;52.388;13.096;2023-07-20T12:21:06;5.90;;;1.07;;
3563;SDS011;1796;52.388;13.096;2023-07-20T12:23:37;1.43;;;1.00;;
3563;SDS011;1796;52.388;13.096;2023-07-20T12:26:07;1.03;;;1.03;;
3563;SDS011;1796;52.388;13.096;2023-07-20T12:28:35;0.70;;;0.70;;
3563;SDS011;1796;52.388;13.096;2023-07-20T12:31:07;2.30;;;0.60;;
3563;SDS011;1796;52.388;13.096;2023-07-20T12:33:34;1.90;;;1.00;;
3563;SDS011;1796;52.388;13.096;2023-07-20T12:36:01;0.70;;;0.70;;
3563;SDS011;1796;52.388;13.096;2023-07-20T12:38:29;0.67;;;0.67;;
3563;SDS011;1796;52.388;13.096;2023-07-20T12:40:56;0.67;;;0.67;;
3563;SDS011;1796;52.388;13.096;2023-07-20T12:43:25;1.03;;;0.80;;
3563;SDS011;1796;52.388;13.096;2023-07-20T12:45:53;1.20;;;0.70;;
3563;SDS011;1796;52.388;13.096;2023-07-20T12:48:20;0.87;;;0.80;;
3563;SDS011;1796;52.388;13.096;2023-07-20T12:50:47;2.87;;;0.83;;
3563;SDS011;1796;52.388;13.096;2023-07-20T12:53:14;1.27;;;1.10;;
3563;SDS011;1796;52.388;13.096;2023-07-20T12:55:41;5.33;;;1.00;;
3563;SDS011;1796;52.388;13.096;2023-07-20T12:58:08;2.40;;;0.70;;
3563;SDS011;1796;52.388;13.096;2023-07-20T13:00:36;10.23;;;0.80;;
3563;SDS011;1796;52.388;13.096;2023-07-20T13:03:04;0.70;;;0.70;;
3563;SDS011;1796;52.388;13.096;2023-07-20T13:05:31;3.50;;;0.73;;
3563;SDS011;1796;52.388;13.096;2023-07-20T13:07:59;0.80;;;0.80;;
3563;SDS011;1796;52.388;13.096;2023-07-20T13:10:27;1.10;;;0.90;;
3563;SDS011;1796;52.388;13.096;2023-07-20T13:12:54;0.70;;;0.70;;
3563;SDS011;1796;52.388;13.096;2023-07-20T13:15:24;4.53;;;3.93;;
3563;SDS011;1796;52.388;13.096;2023-07-20T13:17:55;2.87;;;0.80;;
3563;SDS011;1796;52.388;13.096;2023-07-20T13:20:24;1.43;;;0.80;;
3563;SDS011;1796;52.388;13.096;2023-07-20T13:22:51;1.60;;;0.90;;
3563;SDS011;1796;52.388;13.096;2023-07-20T13:25:18;0.90;;;0.90;;
3563;SDS011;1796;52.388;13.096;2023-07-20T13:27:45;2.40;;;0.60;;
3563;SDS011;1796;52.388;13.096;2023-07-20T13:30:12;0.90;;;0.80;;
3563;SDS011;1796;52.388;13.096;2023-07-20T13:32:41;1.90;;;0.80;;
3563;SDS011;1796;52.388;13.096;2023-07-20T13:35:08;0.73;;;0.73;;
3563;SDS011;1796;52.388;13.096;2023-07-20T13:37:37;1.90;;;0.70;;
3563;SDS011;1796;52.388;13.096;2023-07-20T13:40:04;1.23;;;0.93;;
3563;SDS011;1796;52.388;13.096;2023-07-20T13:42:33;0.70;;;0.70;;
3563;SDS011;1796;52.388;13.096;2023-07-20T13:45:00;0.60;;;0.60;;
3563;SDS011;1796;52.388;13.096;2023-07-20T13:47:28;3.50;;;0.70;;
3563;SDS011;1796;52.388;13.096;2023-07-20T13:49:55;4.33;;;0.80;;
3563;SDS011;1796;52.388;13.096;2023-07-20T13:52:22;2.73;;;0.80;;
3563;SDS011;1796;52.388;13.096;2023-07-20T13:54:50;0.93;;;0.60;;
3563;SDS011;1796;52.388;13.096;2023-07-20T13:57:17;1.80;;;0.90;;
3563;SDS011;1796;52.388;13.096;2023-07-20T13:59:43;1.37;;;0.73;;
3563;SDS011;1796;52.388;13.096;2023-07-20T14:02:10;0.53;;;0.53;;
3563;SDS011;1796;52.388;13.096;2023-07-20T14:04:38;0.67;;;0.67;;
3563;SDS011;1796;52.388;13.096;2023-07-20T14:07:05;1.40;;;0.80;;
3563;SDS011;1796;52.388;13.096;2023-07-20T14:09:32;1.90;;;0.83;;
3563;SDS011;1796;52.388;13.096;2023-07-20T14:12:00;3.33;;;0.97;;
3563;SDS011;1796;52.388;13.096;2023-07-20T14:14:27;0.80;;;0.63;;
3563;SDS011;1796;52.388;13.096;2023-07-20T14:16:54;0.60;;;0.60;;
3563;SDS011;1796;52.388;13.096;2023-07-20T14:19:21;1.97;;;0.77;;
3563;SDS011;1796;52.388;13.096;2023-07-20T14:21:48;3.23;;;0.83;;
3563;SDS011;1796;52.388;13.096;2023-07-20T14:24:15;0.70;;;0.70;;
3563;SDS011;1796;52.388;13.096;2023-07-20T14:26:42;0.80;;;0.80;;
3563;SDS011;1796;52.388;13.096;2023-07-20T14:29:10;0.90;;;0.90;;
3563;SDS011;1796;52.388;13.096;2023-07-20T14:31:36;0.80;;;0.80;;
3563;SDS011;1796;52.388;13.096;2023-07-20T14:34:03;1.13;;;0.97;;
3563;SDS011;1796;52.388;13.096;2023-07-20T14:36:30;0.80;;;0.80;;
3563;SDS011;1796;52.388;13.096;2023-07-20T14:38:57;1.40;;;0.87;;
3563;SDS011;1796;52.388;13.096;2023-07-20T14:41:24;2.33;;;1.00;;
3563;SDS011;1796;52.388;13.096;2023-07-20T14:43:51;1.20;;;1.10;;
3563;SDS011;1796;52.388;13.096;2023-07-20T14:46:19;5.43;;;0.77;;
3563;SDS011;1796;52.388;13.096;2023-07-20T14:48:46;6.27;;;0.77;;
3563;SDS011;1796;52.388;13.096;2023-07-20T14:51:13;1.13;;;0.70;;
3563;SDS011;1796;52.388;13.096;2023-07-20T14:53:39;0.93;;;0.87;;
3563;SDS011;1796;52.388;13.096;2023-07-20T14:56:06;0.83;;;0.77;;
3563;SDS011;1796;52.388;13.096;2023-07-20T14:58:34;0.80;;;0.73;;
3563;SDS011;1796;52.388;13.096;2023-07-20T15:01:01;0.67;;;0.67;;
3563;SDS011;1796;52.388;13.096;2023-07-20T15:03:29;0.90;;;0.90;;
3563;SDS011;1796;52.388;13.096;2023-07-20T15:05:56;1.67;;;1.00;;
3563;SDS011;1796;52.388;13.096;2023-07-20T15:08:23;7.03;;;0.93;;
3563;SDS011;1796;52.388;13.096;2023-07-20T15:10:50;0.70;;;0.70;;
3563;SDS011;1796;52.388;13.096;2023-07-20T15:13:17;4.20;;;1.00;;